sensor_id;sensor_type;location;lat;lon;timestamp;pressure;altitude;pressure_sealevel;temperature;humidity
9141;BME280;46330;50.822;7.126;2023-12-20T00:01:20;100866.97;;;6.51;100.00
9141;BME280;46330;50.822;7.126;2023-12-20T00:03:48;100865.25;;;6.52;100.00
9141;BME280;46330;50.822;7.126;2023-12-20T00:06:16;100865.25;;;6.53;100.00
9141;BME280;46330;50.822;7.126;2023-12-20T00:08:46;100860.03;;;6.52;100.00
9141;BME280;46330;50.822;7.126;2023-12-20T00:11:14;100862.66;;;6.53;100.00
9141;BME280;46330;50.822;7.126;2023-12-20T00:13:42;100853.13;;;6.54;100.00
9141;BME280;46330;50.822;7.126;2023-12-20T00:16:12;100865.25;;;6.56;100.00
9141;BME280;46330;50.822;7.126;2023-12-20T00:18:40;100855.72;;;6.55;100.00
9141;BME280;46330;50.822;7.126;2023-12-20T00:21:08;100862.66;;;6.55;100.00
9141;BME280;46330;50.822;7.126;2023-12-20T00:23:36;100859.19;;;6.56;100.00
9141;BME280;46330;50.822;7.126;2023-12-20T00:26:05;100853.13;;;6.58;100.00
9141;BME280;46330;50.822;7.126;2023-12-20T00:28:33;100849.66;;;6.61;100.00
9141;BME280;46330;50.822;7.126;2023-12-20T00:31:01;100856.59;;;6.62;100.00
9141;BME280;46330;50.822;7.126;2023-12-20T00:33:29;100856.56;;;6.63;100.00
9141;BME280;46330;50.822;7.126;2023-12-20T00:35:57;100865.25;;;6.64;100.00
9141;BME280;46330;50.822;7.126;2023-12-20T00:38:25;100863.50;;;6.67;100.00
9141;BME280;46330;50.822;7.126;2023-12-20T00:40:53;100855.72;;;6.67;100.00
9141;BME280;46330;50.822;7.126;2023-12-20T00:43:22;100865.25;;;6.67;100.00
9141;BME280;46330;50.822;7.126;2023-12-20T00:45:51;100866.97;;;6.68;100.00
9141;BME280;46330;50.822;7.126;2023-12-20T00:48:19;100866.97;;;6.68;100.00
9141;BME280;46330;50.822;7.126;2023-12-20T00:50:47;100864.38;;;6.68;100.00
9141;BME280;46330;50.822;7.126;2023-12-20T00:53:15;100860.91;;;6.67;100.00
9141;BME280;46330;50.822;7.126;2023-12-20T00:55:43;100860.91;;;6.67;100.00
9141;BME280;46330;50.822;7.126;2023-12-20T00:58:11;100867.00;;;6.72;100.00
9141;BME280;46330;50.822;7.126;2023-12-20T01:00:43;100865.25;;;6.74;100.00
9141;BME280;46330;50.822;7.126;2023-12-20T01:03:12;100869.59;;;6.72;100.00
9141;BME280;46330;50.822;7.126;2023-12-20T01:05:40;100861.78;;;6.74;100.00
9141;BME280;46330;50.822;7.126;2023-12-20T01:08:08;100876.53;;;6.72;100.00
9141;BME280;46330;50.822;7.126;2023-12-20T01:10:36;100882.56;;;6.74;100.00
9141;BME280;46330;50.822;7.126;2023-12-20T01:13:04;100887.78;;;6.72;100.00
9141;BME280;46330;50.822;7.126;2023-12-20T01:15:31;100886.91;;;6.70;100.00
9141;BME280;46330;50.822;7.126;2023-12-20T01:18:01;100879.97;;;6.71;100.00
9141;BME280;46330;50.822;7.126;2023-12-20T01:20:29;100887.78;;;6.71;100.00
9141;BME280;46330;50.822;7.126;2023-12-20T01:22:57;100888.63;;;6.70;100.00
9141;BME280;46330;50.822;7.126;2023-12-20T01:25:25;100886.91;;;6.72;100.00
9141;BME280;46330;50.822;7.126;2023-12-20T01:27:52;100893.00;;;6.69;100.00
9141;BME280;46330;50.822;7.126;2023-12-20T01:30:20;100892.09;;;6.70;100.00
9141;BME280;46330;50.822;7.126;2023-12-20T01:32:48;100890.38;;;6.68;100.00
9141;BME280;46330;50.822;7.126;2023-12-20T01:35:18;100893.84;;;6.70;100.00
9141;BME280;46330;50.822;7.126;2023-12-20T01:37:46;100900.78;;;6.66;100.00
9141;BME280;46330;50.822;7.126;2023-12-20T01:40:14;100899.03;;;6.67;100.00
9141;BME280;46330;50.822;7.126;2023-12-20T01:42:43;100903.38;;;6.65;100.00
9141;BME280;46330;50.822;7.126;2023-12-20T01:45:11;100908.53;;;6.57;100.00
9141;BME280;46330;50.822;7.126;2023-12-20T01:47:39;100916.34;;;6.59;100.00
9141;BME280;46330;50.822;7.126;2023-12-20T01:50:08;100911.16;;;6.59;100.00
9141;BME280;46330;50.822;7.126;2023-12-20T01:52:37;100905.94;;;6.54;100.00
9141;BME280;46330;50.822;7.126;2023-12-20T01:55:06;100905.09;;;6.49;100.00
9141;BME280;46330;50.822;7.126;2023-12-20T01:57:40;100906.81;;;6.41;100.00
9141;BME280;46330;50.822;7.126;2023-12-20T02:00:10;100917.19;;;6.38;100.00
9141;BME280;46330;50.822;7.126;2023-12-20T02:02:39;100912.00;;;6.35;100.00
9141;BME280;46330;50.822;7.126;2023-12-20T02:05:08;100919.78;;;6.29;100.00
9141;BME280;46330;50.822;7.126;2023-12-20T02:07:38;100925.81;;;6.25;100.00
9141;BME280;46330;50.822;7.126;2023-12-20T02:10:06;100920.59;;;6.23;100.00
9141;BME280;46330;50.822;7.126;2023-12-20T02:12:35;100924.06;;;6.21;100.00
9141;BME280;46330;50.822;7.126;2023-12-20T02:15:03;100920.59;;;6.20;100.00
9141;BME280;46330;50.822;7.126;2023-12-20T02:17:32;100925.78;;;6.20;100.00
9141;BME280;46330;50.822;7.126;2023-12-20T02:20:00;100925.81;;;6.23;100.00
9141;BME280;46330;50.822;7.126;2023-12-20T02:22:30;100929.28;;;6.19;100.00
9141;BME280;46330;50.822;7.126;2023-12-20T02:24:58;100926.66;;;6.15;100.00
9141;BME280;46330;50.822;7.126;2023-12-20T02:27:27;100940.50;;;6.12;100.00
9141;BME280;46330;50.822;7.126;2023-12-20T02:29:55;100940.47;;;6.03;100.00
9141;BME280;46330;50.822;7.126;2023-12-20T02:32:24;100939.56;;;5.97;100.00
9141;BME280;46330;50.822;7.126;2023-12-20T02:34:53;100940.38;;;5.89;100.00
9141;BME280;46330;50.822;7.126;2023-12-20T02:37:21;100936.88;;;5.83;100.00
9141;BME280;46330;50.822;7.126;2023-12-20T02:39:50;100937.72;;;5.77;100.00
9141;BME280;46330;50.822;7.126;2023-12-20T02:42:19;100952.41;;;5.72;100.00
9141;BME280;46330;50.822;7.126;2023-12-20T02:44:46;100950.59;;;5.61;100.00
9141;BME280;46330;50.822;7.126;2023-12-20T02:47:14;100953.19;;;5.61;100.00
9141;BME280;46330;50.822;7.126;2023-12-20T02:49:42;100960.06;;;5.53;100.00
9141;BME280;46330;50.822;7.126;2023-12-20T02:52:11;100963.47;;;5.46;100.00
9141;BME280;46330;50.822;7.126;2023-12-20T02:54:39;100962.56;;;5.42;100.00
9141;BME280;46330;50.822;7.126;2023-12-20T02:57:08;100966.88;;;5.35;100.00
9141;BME280;46330;50.822;7.126;2023-12-20T02:59:36;100977.25;;;5.35;100.00
9141;BME280;46330;50.822;7.126;2023-12-20T03:02:04;100962.50;;;5.30;100.00
9141;BME280;46330;50.822;7.126;2023-12-20T03:04:32;100972.88;;;5.31;100.00
9141;BME280;46330;50.822;7.126;2023-12-20T03:07:00;100981.53;;;5.29;100.00
9141;BME280;46330;50.822;7.126;2023-12-20T03:09:28;100985.84;;;5.28;100.00
9141;BME280;46330;50.822;7.126;2023-12-20T03:12:04;100985.81;;;5.27;100.00
9141;BME280;46330;50.822;7.126;2023-12-20T03:14:34;100985.81;;;5.25;100.00
9141;BME280;46330;50.822;7.126;2023-12-20T03:17:02;100976.28;;;5.23;100.00
9141;BME280;46330;50.822;7.126;2023-12-20T03:19:30;100974.59;;;5.28;100.00
9141;BME280;46330;50.822;7.126;2023-12-20T03:21:58;100973.75;;;5.29;100.00
9141;BME280;46330;50.822;7.126;2023-12-20T03:24:27;100978.94;;;5.29;100.00
9141;BME280;46330;50.822;7.126;2023-12-20T03:26:55;100981.56;;;5.35;100.00
9141;BME280;46330;50.822;7.126;2023-12-20T03:29:23;100976.41;;;5.38;100.00
9141;BME280;46330;50.822;7.126;2023-12-20T03:31:52;100973.81;;;5.38;100.00
9141;BME280;46330;50.822;7.126;2023-12-20T03:34:20;100960.84;;;5.41;100.00
9141;BME280;46330;50.822;7.126;2023-12-20T03:36:48;100960.84;;;5.42;100.00
9141;BME280;46330;50.822;7.126;2023-12-20T03:39:16;100960.88;;;5.46;100.00
9141;BME280;46330;50.822;7.126;2023-12-20T03:41:44;100961.78;;;5.48;100.00
9141;BME280;46330;50.822;7.126;2023-12-20T03:44:12;100967.81;;;5.51;100.00
9141;BME280;46330;50.822;7.126;2023-12-20T03:46:40;100956.63;;;5.54;100.00
9141;BME280;46330;50.822;7.126;2023-12-20T03:49:09;100973.00;;;5.51;100.00
9141;BME280;46330;50.822;7.126;2023-12-20T03:51:37;100967.88;;;5.56;100.00
9141;BME280;46330;50.822;7.126;2023-12-20T03:54:05;100967.88;;;5.54;100.00
9141;BME280;46330;50.822;7.126;2023-12-20T03:56:33;100972.19;;;5.57;100.00
9141;BME280;46330;50.822;7.126;2023-12-20T03:59:01;100961.78;;;5.52;100.00
9141;BME280;46330;50.822;7.126;2023-12-20T04:01:29;100975.66;;;5.56;100.00
9141;BME280;46330;50.822;7.126;2023-12-20T04:03:57;100963.53;;;5.53;100.00
9141;BME280;46330;50.822;7.126;2023-12-20T04:06:26;100970.47;;;5.56;100.00
9141;BME280;46330;50.822;7.126;2023-12-20T04:08:55;100970.47;;;5.56;100.00
9141;BME280;46330;50.822;7.126;2023-12-20T04:11:22;100973.91;;;5.58;100.00
9141;BME280;46330;50.822;7.126;2023-12-20T04:13:50;100973.94;;;5.61;100.00
9141;BME280;46330;50.822;7.126;2023-12-20T04:16:18;100971.34;;;5.59;100.00
9141;BME280;46330;50.822;7.126;2023-12-20T04:18:46;100980.84;;;5.57;100.00
9141;BME280;46330;50.822;7.126;2023-12-20T04:21:14;100967.00;;;5.58;100.00
9141;BME280;46330;50.822;7.126;2023-12-20T04:23:44;100972.19;;;5.58;100.00
9141;BME280;46330;50.822;7.126;2023-12-20T04:26:12;100973.06;;;5.57;100.00
9141;BME280;46330;50.822;7.126;2023-12-20T04:28:40;100965.28;;;5.59;100.00
9141;BME280;46330;50.822;7.126;2023-12-20T04:31:08;100959.25;;;5.61;100.00
9141;BME280;46330;50.822;7.126;2023-12-20T04:33:36;100965.31;;;5.62;100.00
9141;BME280;46330;50.822;7.126;2023-12-20T04:36:05;100965.31;;;5.62;100.00
9141;BME280;46330;50.822;7.126;2023-12-20T04:38:33;100970.53;;;5.63;100.00
9141;BME280;46330;50.822;7.126;2023-12-20T04:41:02;100969.66;;;5.63;100.00
9141;BME280;46330;50.822;7.126;2023-12-20T04:43:30;100972.25;;;5.66;100.00
9141;BME280;46330;50.822;7.126;2023-12-20T04:45:58;100972.25;;;5.66;100.00
9141;BME280;46330;50.822;7.126;2023-12-20T04:48:26;100983.50;;;5.66;100.00
9141;BME280;46330;50.822;7.126;2023-12-20T04:50:54;100980.00;;;5.64;100.00
9141;BME280;46330;50.822;7.126;2023-12-20T04:53:22;100973.97;;;5.62;100.00
9141;BME280;46330;50.822;7.126;2023-12-20T04:55:50;100986.06;;;5.62;100.00
9141;BME280;46330;50.822;7.126;2023-12-20T04:58:20;100977.38;;;5.58;100.00
9141;BME280;46330;50.822;7.126;2023-12-20T05:00:48;100976.53;;;5.56;100.00
9141;BME280;46330;50.822;7.126;2023-12-20T05:03:16;100976.50;;;5.58;100.00
9141;BME280;46330;50.822;7.126;2023-12-20T05:05:44;100975.66;;;5.59;100.00
9141;BME280;46330;50.822;7.126;2023-12-20T05:08:12;100972.19;;;5.57;100.00
9141;BME280;46330;50.822;7.126;2023-12-20T05:10:40;100970.44;;;5.53;100.00
9141;BME280;46330;50.822;7.126;2023-12-20T05:13:08;100975.59;;;5.51;100.00
9141;BME280;46330;50.822;7.126;2023-12-20T05:15:37;100984.19;;;5.42;100.00
9141;BME280;46330;50.822;7.126;2023-12-20T05:18:06;100985.06;;;5.38;100.00
9141;BME280;46330;50.822;7.126;2023-12-20T05:20:34;100981.56;;;5.36;100.00
9141;BME280;46330;50.822;7.126;2023-12-20T05:23:02;100974.63;;;5.34;100.00
9141;BME280;46330;50.822;7.126;2023-12-20T05:25:30;100969.44;;;5.34;100.00
9141;BME280;46330;50.822;7.126;2023-12-20T05:27:58;100970.25;;;5.27;100.00
9141;BME280;46330;50.822;7.126;2023-12-20T05:30:26;100971.09;;;5.24;100.00
9141;BME280;46330;50.822;7.126;2023-12-20T05:32:55;100980.59;;;5.19;100.00
9141;BME280;46330;50.822;7.126;2023-12-20T05:35:23;100987.47;;;5.17;100.00
9141;BME280;46330;50.822;7.126;2023-12-20T05:37:51;100984.88;;;5.17;100.00
9141;BME280;46330;50.822;7.126;2023-12-20T05:40:19;100972.78;;;5.18;100.00
9141;BME280;46330;50.822;7.126;2023-12-20T05:42:47;100971.06;;;5.17;100.00
9141;BME280;46330;50.822;7.126;2023-12-20T05:45:16;100987.47;;;5.19;100.00
9141;BME280;46330;50.822;7.126;2023-12-20T05:47:44;100998.69;;;5.18;100.00
9141;BME280;46330;50.822;7.126;2023-12-20T05:50:14;100994.41;;;5.20;100.00
9141;BME280;46330;50.822;7.126;2023-12-20T05:52:42;100996.16;;;5.22;100.00
9141;BME280;46330;50.822;7.126;2023-12-20T05:55:10;100998.75;;;5.22;100.00
9141;BME280;46330;50.822;7.126;2023-12-20T05:57:38;100987.47;;;5.20;100.00
9141;BME280;46330;50.822;7.126;2023-12-20T06:00:08;100985.75;;;5.21;100.00
9141;BME280;46330;50.822;7.126;2023-12-20T06:02:39;100984.03;;;5.21;100.00
9141;BME280;46330;50.822;7.126;2023-12-20T06:05:07;100984.91;;;5.23;100.00
9141;BME280;46330;50.822;7.126;2023-12-20T06:07:37;100982.34;;;5.26;100.00
9141;BME280;46330;50.822;7.126;2023-12-20T06:10:06;100986.72;;;5.29;100.00
9141;BME280;46330;50.822;7.126;2023-12-20T06:12:34;100985.84;;;5.30;100.00
9141;BME280;46330;50.822;7.126;2023-12-20T06:15:03;100991.88;;;5.27;100.00
9141;BME280;46330;50.822;7.126;2023-12-20T06:17:33;100999.69;;;5.29;100.00
9141;BME280;46330;50.822;7.126;2023-12-20T06:20:02;101000.53;;;5.31;100.00
9141;BME280;46330;50.822;7.126;2023-12-20T06:22:34;100995.31;;;5.29;100.00
9141;BME280;46330;50.822;7.126;2023-12-20T06:25:04;100991.00;;;5.27;100.00
9141;BME280;46330;50.822;7.126;2023-12-20T06:27:33;100996.22;;;5.28;100.00
9141;BME280;46330;50.822;7.126;2023-12-20T06:30:01;100997.91;;;5.29;100.00
9141;BME280;46330;50.822;7.126;2023-12-20T06:32:29;100994.47;;;5.30;100.00
9141;BME280;46330;50.822;7.126;2023-12-20T06:34:57;100995.31;;;5.29;100.00
9141;BME280;46330;50.822;7.126;2023-12-20T06:37:26;100997.97;;;5.34;100.00
9141;BME280;46330;50.822;7.126;2023-12-20T06:39:54;101004.91;;;5.35;100.00
9141;BME280;46330;50.822;7.126;2023-12-20T06:42:24;100998.84;;;5.36;100.00
9141;BME280;46330;50.822;7.126;2023-12-20T06:44:52;100997.16;;;5.38;100.00
9141;BME280;46330;50.822;7.126;2023-12-20T06:47:21;100995.41;;;5.40;100.00
9141;BME280;46330;50.822;7.126;2023-12-20T06:49:49;101002.38;;;5.44;100.00
9141;BME280;46330;50.822;7.126;2023-12-20T06:52:17;100998.06;;;5.45;100.00
9141;BME280;46330;50.822;7.126;2023-12-20T06:54:45;101011.06;;;5.48;100.00
9141;BME280;46330;50.822;7.126;2023-12-20T06:57:13;100993.75;;;5.47;100.00
9141;BME280;46330;50.822;7.126;2023-12-20T06:59:42;100981.66;;;5.50;100.00
9141;BME280;46330;50.822;7.126;2023-12-20T07:02:11;100987.72;;;5.51;100.00
9141;BME280;46330;50.822;7.126;2023-12-20T07:04:41;100984.28;;;5.53;100.00
9141;BME280;46330;50.822;7.126;2023-12-20T07:07:09;100995.50;;;5.52;100.00
9141;BME280;46330;50.822;7.126;2023-12-20T07:09:37;101001.56;;;5.53;100.00
9141;BME280;46330;50.822;7.126;2023-12-20T07:12:05;101000.72;;;5.54;100.00
9141;BME280;46330;50.822;7.126;2023-12-20T07:14:33;101016.31;;;5.57;100.00
9141;BME280;46330;50.822;7.126;2023-12-20T07:17:03;101016.31;;;5.58;100.00
9141;BME280;46330;50.822;7.126;2023-12-20T07:19:31;101016.31;;;5.58;100.00
9141;BME280;46330;50.822;7.126;2023-12-20T07:21:59;101010.25;;;5.58;100.00
9141;BME280;46330;50.822;7.126;2023-12-20T07:24:27;101016.31;;;5.60;100.00
9141;BME280;46330;50.822;7.126;2023-12-20T07:26:55;101016.31;;;5.61;100.00
9141;BME280;46330;50.822;7.126;2023-12-20T07:29:23;101013.72;;;5.60;100.00
9141;BME280;46330;50.822;7.126;2023-12-20T07:31:52;101006.81;;;5.62;100.00
9141;BME280;46330;50.822;7.126;2023-12-20T07:34:22;101017.19;;;5.62;100.00
9141;BME280;46330;50.822;7.126;2023-12-20T07:36:50;101005.09;;;5.62;100.00
9141;BME280;46330;50.822;7.126;2023-12-20T07:39:18;100999.88;;;5.61;100.00
9141;BME280;46330;50.822;7.126;2023-12-20T07:41:46;101004.22;;;5.62;100.00
9141;BME280;46330;50.822;7.126;2023-12-20T07:44:14;101012.00;;;5.60;100.00
9141;BME280;46330;50.822;7.126;2023-12-20T07:46:42;101005.06;;;5.61;100.00
9141;BME280;46330;50.822;7.126;2023-12-20T07:49:10;101006.84;;;5.63;100.00
9141;BME280;46330;50.822;7.126;2023-12-20T07:51:40;101007.66;;;5.61;100.00
9141;BME280;46330;50.822;7.126;2023-12-20T07:54:08;101016.34;;;5.63;100.00
9141;BME280;46330;50.822;7.126;2023-12-20T07:56:36;101015.47;;;5.64;100.00
9141;BME280;46330;50.822;7.126;2023-12-20T07:59:04;101011.16;;;5.67;100.00
9141;BME280;46330;50.822;7.126;2023-12-20T08:01:38;101009.44;;;5.65;100.00
9141;BME280;46330;50.822;7.126;2023-12-20T08:04:06;101012.91;;;5.68;100.00
9141;BME280;46330;50.822;7.126;2023-12-20T08:06:34;101006.84;;;5.68;100.00
9141;BME280;46330;50.822;7.126;2023-12-20T08:09:03;101012.03;;;5.68;100.00
9141;BME280;46330;50.822;7.126;2023-12-20T08:11:32;101007.72;;;5.68;100.00
9141;BME280;46330;50.822;7.126;2023-12-20T08:14:00;101019.88;;;5.72;100.00
9141;BME280;46330;50.822;7.126;2023-12-20T08:16:28;101023.34;;;5.73;100.00
9141;BME280;46330;50.822;7.126;2023-12-20T08:18:56;101012.09;;;5.75;100.00
9141;BME280;46330;50.822;7.126;2023-12-20T08:21:24;101012.13;;;5.78;100.00
9141;BME280;46330;50.822;7.126;2023-12-20T08:23:52;101013.84;;;5.82;100.00
9141;BME280;46330;50.822;7.126;2023-12-20T08:26:22;101019.06;;;5.81;100.00
9141;BME280;46330;50.822;7.126;2023-12-20T08:28:51;101003.47;;;5.82;100.00
9141;BME280;46330;50.822;7.126;2023-12-20T08:31:19;101015.69;;;5.88;100.00
9141;BME280;46330;50.822;7.126;2023-12-20T08:33:48;101015.69;;;5.88;100.00
9141;BME280;46330;50.822;7.126;2023-12-20T08:36:17;101011.34;;;5.90;100.00
9141;BME280;46330;50.822;7.126;2023-12-20T08:38:45;101013.94;;;5.90;100.00
9141;BME280;46330;50.822;7.126;2023-12-20T08:41:13;101018.28;;;5.88;100.00
9141;BME280;46330;50.822;7.126;2023-12-20T08:43:43;101014.81;;;5.90;100.00
9141;BME280;46330;50.822;7.126;2023-12-20T08:46:11;101011.31;;;5.88;100.00
9141;BME280;46330;50.822;7.126;2023-12-20T08:48:39;101020.84;;;5.86;100.00
9141;BME280;46330;50.822;7.126;2023-12-20T08:51:07;101026.88;;;5.85;100.00
9141;BME280;46330;50.822;7.126;2023-12-20T08:53:36;101026.06;;;5.91;100.00
9141;BME280;46330;50.822;7.126;2023-12-20T08:56:05;101028.69;;;5.95;100.00
9141;BME280;46330;50.822;7.126;2023-12-20T08:58:33;101029.56;;;5.91;100.00
9141;BME280;46330;50.822;7.126;2023-12-20T09:01:04;101030.41;;;5.93;100.00
9141;BME280;46330;50.822;7.126;2023-12-20T09:03:33;101025.22;;;5.95;100.00
9141;BME280;46330;50.822;7.126;2023-12-20T09:06:05;101020.88;;;5.92;100.00
9141;BME280;46330;50.822;7.126;2023-12-20T09:08:37;101023.50;;;5.97;100.00
9141;BME280;46330;50.822;7.126;2023-12-20T09:11:08;101014.00;;;5.98;100.00
9141;BME280;46330;50.822;7.126;2023-12-20T09:13:38;101020.06;;;6.01;100.00
9141;BME280;46330;50.822;7.126;2023-12-20T09:16:08;101026.13;;;6.03;100.00
9141;BME280;46330;50.822;7.126;2023-12-20T09:18:36;101032.22;;;6.07;100.00
9141;BME280;46330;50.822;7.126;2023-12-20T09:21:04;101037.44;;;6.13;100.00
9141;BME280;46330;50.822;7.126;2023-12-20T09:23:32;101025.31;;;6.12;100.00
9141;BME280;46330;50.822;7.126;2023-12-20T09:26:00;101022.72;;;6.15;100.00
9141;BME280;46330;50.822;7.126;2023-12-20T09:28:28;101017.56;;;6.16;100.00
9141;BME280;46330;50.822;7.126;2023-12-20T09:30:57;101015.81;;;6.18;100.00
9141;BME280;46330;50.822;7.126;2023-12-20T09:33:26;101011.53;;;6.22;100.00
9141;BME280;46330;50.822;7.126;2023-12-20T09:35:54;101000.25;;;6.23;100.00
9141;BME280;46330;50.822;7.126;2023-12-20T09:38:23;101013.25;;;6.26;100.00
9141;BME280;46330;50.822;7.126;2023-12-20T09:40:51;101009.81;;;6.25;100.00
9141;BME280;46330;50.822;7.126;2023-12-20T09:43:23;101017.59;;;6.25;100.00
9141;BME280;46330;50.822;7.126;2023-12-20T09:45:53;101009.78;;;6.27;100.00
9141;BME280;46330;50.822;7.126;2023-12-20T09:48:22;101009.81;;;6.25;100.00
9141;BME280;46330;50.822;7.126;2023-12-20T09:50:52;101019.34;;;6.28;100.00
9141;BME280;46330;50.822;7.126;2023-12-20T09:53:21;101006.31;;;6.23;100.00
9141;BME280;46330;50.822;7.126;2023-12-20T09:55:51;101011.53;;;6.28;100.00
9141;BME280;46330;50.822;7.126;2023-12-20T09:58:20;101002.88;;;6.27;100.00
9141;BME280;46330;50.822;7.126;2023-12-20T10:00:48;101007.22;;;6.31;100.00
9141;BME280;46330;50.822;7.126;2023-12-20T10:03:17;101008.09;;;6.33;100.00
9141;BME280;46330;50.822;7.126;2023-12-20T10:05:54;101005.53;;;6.38;100.00
9141;BME280;46330;50.822;7.126;2023-12-20T10:08:24;101002.06;;;6.37;100.00
9141;BME280;46330;50.822;7.126;2023-12-20T10:10:52;101004.63;;;6.39;100.00
9141;BME280;46330;50.822;7.126;2023-12-20T10:13:22;101007.25;;;6.39;100.00
9141;BME280;46330;50.822;7.126;2023-12-20T10:15:50;101013.31;;;6.42;100.00
9141;BME280;46330;50.822;7.126;2023-12-20T10:18:18;101003.78;;;6.38;100.00
9141;BME280;46330;50.822;7.126;2023-12-20T10:20:47;100991.66;;;6.34;100.00
9141;BME280;46330;50.822;7.126;2023-12-20T10:23:17;100996.84;;;6.34;100.00
9141;BME280;46330;50.822;7.126;2023-12-20T10:25:55;101003.78;;;6.38;100.00
9141;BME280;46330;50.822;7.126;2023-12-20T10:28:24;101002.03;;;6.39;100.00
9141;BME280;46330;50.822;7.126;2023-12-20T10:30:55;101002.94;;;6.38;100.00
9141;BME280;46330;50.822;7.126;2023-12-20T10:33:24;101002.06;;;6.42;100.00
9141;BME280;46330;50.822;7.126;2023-12-20T10:35:54;100998.59;;;6.43;100.00
9141;BME280;46330;50.822;7.126;2023-12-20T10:38:23;100986.47;;;6.45;100.00
9141;BME280;46330;50.822;7.126;2023-12-20T10:40:54;100984.75;;;6.48;100.00
9141;BME280;46330;50.822;7.126;2023-12-20T10:43:25;100972.66;;;6.47;100.00
9141;BME280;46330;50.822;7.126;2023-12-20T10:45:54;100972.66;;;6.55;100.00
9141;BME280;46330;50.822;7.126;2023-12-20T10:48:22;100961.38;;;6.55;100.00
9141;BME280;46330;50.822;7.126;2023-12-20T10:50:59;100959.69;;;6.54;100.00
9141;BME280;46330;50.822;7.126;2023-12-20T10:53:30;100963.97;;;6.55;100.00
9141;BME280;46330;50.822;7.126;2023-12-20T10:56:00;100957.91;;;6.57;100.00
9141;BME280;46330;50.822;7.126;2023-12-20T10:58:33;100956.22;;;6.56;100.00
9141;BME280;46330;50.822;7.126;2023-12-20T11:01:06;100958.81;;;6.59;100.00
9141;BME280;46330;50.822;7.126;2023-12-20T11:03:36;100952.72;;;6.57;100.00
9141;BME280;46330;50.822;7.126;2023-12-20T11:06:10;100959.69;;;6.60;100.00
9141;BME280;46330;50.822;7.126;2023-12-20T11:08:49;100959.66;;;6.58;100.00
9141;BME280;46330;50.822;7.126;2023-12-20T11:11:23;100960.50;;;6.57;100.00
9141;BME280;46330;50.822;7.126;2023-12-20T11:13:56;100966.59;;;6.56;100.00
9141;BME280;46330;50.822;7.126;2023-12-20T11:16:25;100958.78;;;6.61;100.00
9141;BME280;46330;50.822;7.126;2023-12-20T11:19:06;100966.63;;;6.65;100.00
9141;BME280;46330;50.822;7.126;2023-12-20T11:21:35;100960.53;;;6.60;100.00
9141;BME280;46330;50.822;7.126;2023-12-20T11:24:05;100958.81;;;6.64;100.00
9141;BME280;46330;50.822;7.126;2023-12-20T11:26:33;100957.97;;;6.66;100.00
9141;BME280;46330;50.822;7.126;2023-12-20T11:29:30;100964.00;;;6.73;100.00
9141;BME280;46330;50.822;7.126;2023-12-20T11:31:59;100965.75;;;6.74;100.00
9141;BME280;46330;50.822;7.126;2023-12-20T11:34:28;100960.56;;;6.77;100.00
9141;BME280;46330;50.822;7.126;2023-12-20T11:37:00;100963.19;;;6.72;100.00
9141;BME280;46330;50.822;7.126;2023-12-20T11:39:30;100948.41;;;6.73;100.00
9141;BME280;46330;50.822;7.126;2023-12-20T11:42:04;100957.09;;;6.79;100.00
9141;BME280;46330;50.822;7.126;2023-12-20T11:44:33;100957.09;;;6.85;100.00
9141;BME280;46330;50.822;7.126;2023-12-20T11:47:01;100944.09;;;6.91;100.00
9141;BME280;46330;50.822;7.126;2023-12-20T11:49:29;100944.09;;;7.00;100.00
9141;BME280;46330;50.822;7.126;2023-12-20T11:51:57;100933.72;;;7.11;100.00
9141;BME280;46330;50.822;7.126;2023-12-20T11:54:29;100935.44;;;7.24;100.00
9141;BME280;46330;50.822;7.126;2023-12-20T11:56:57;100946.69;;;7.23;100.00
9141;BME280;46330;50.822;7.126;2023-12-20T11:59:25;100935.44;;;7.24;100.00
9141;BME280;46330;50.822;7.126;2023-12-20T12:01:53;100925.91;;;7.19;100.00
9141;BME280;46330;50.822;7.126;2023-12-20T12:04:27;100929.38;;;7.07;100.00
9141;BME280;46330;50.822;7.126;2023-12-20T12:06:55;100920.72;;;7.10;100.00
9141;BME280;46330;50.822;7.126;2023-12-20T12:09:23;100929.38;;;7.09;100.00
9141;BME280;46330;50.822;7.126;2023-12-20T12:11:53;100918.97;;;7.04;100.00
9141;BME280;46330;50.822;7.126;2023-12-20T12:14:21;100917.25;;;7.01;100.00
9141;BME280;46330;50.822;7.126;2023-12-20T12:16:49;100917.25;;;6.98;100.00
9141;BME280;46330;50.822;7.126;2023-12-20T12:19:20;100917.25;;;6.98;100.00
9141;BME280;46330;50.822;7.126;2023-12-20T12:21:49;100916.38;;;6.95;100.00
9141;BME280;46330;50.822;7.126;2023-12-20T12:24:20;100905.97;;;6.98;100.00
9141;BME280;46330;50.822;7.126;2023-12-20T12:26:53;100915.50;;;6.94;100.00
9141;BME280;46330;50.822;7.126;2023-12-20T12:29:24;100906.84;;;6.94;100.00
9141;BME280;46330;50.822;7.126;2023-12-20T12:31:52;100905.13;;;6.96;100.00
9141;BME280;46330;50.822;7.126;2023-12-20T12:34:21;100897.31;;;6.91;100.00
9141;BME280;46330;50.822;7.126;2023-12-20T12:36:49;100886.91;;;6.90;100.00
9141;BME280;46330;50.822;7.126;2023-12-20T12:39:17;100887.78;;;6.95;100.00
9141;BME280;46330;50.822;7.126;2023-12-20T12:41:45;100883.47;;;6.91;100.00
9141;BME280;46330;50.822;7.126;2023-12-20T12:44:15;100880.84;;;6.94;100.00
9141;BME280;46330;50.822;7.126;2023-12-20T12:46:44;100879.97;;;6.98;100.00
9141;BME280;46330;50.822;7.126;2023-12-20T12:49:13;100879.97;;;6.95;100.00
9141;BME280;46330;50.822;7.126;2023-12-20T12:51:41;100874.78;;;6.96;100.00
9141;BME280;46330;50.822;7.126;2023-12-20T12:54:09;100865.25;;;6.97;100.00
9141;BME280;46330;50.822;7.126;2023-12-20T12:56:39;100871.28;;;6.94;100.00
9141;BME280;46330;50.822;7.126;2023-12-20T12:59:07;100876.50;;;6.99;100.00
9141;BME280;46330;50.822;7.126;2023-12-20T13:01:37;100867.84;;;6.98;100.00
9141;BME280;46330;50.822;7.126;2023-12-20T13:04:06;100861.78;;;6.99;100.00
9141;BME280;46330;50.822;7.126;2023-12-20T13:06:38;100873.91;;;6.96;100.00
9141;BME280;46330;50.822;7.126;2023-12-20T13:09:07;100864.38;;;6.92;100.00